Time;durP1;ratioP1;P1;durP2;ratioP2;P2;SDS_P1;SDS_P2;PMS_P1;PMS_P2;Temp;Humidity;BMP_temperature;BMP_pressure;BME280_temperature;BME280_humidity;BME280_pressure;Samples;Min_cycle;Max_cycle;Signal;HPM_P1;HPM_P2
2022/03/26 00:00:04;;;;;;;34.83;14.60;;;;;;;7.64;67.79;103131.69;4984227;28;20034;-83
2022/03/26 00:02:29;;;;;;;35.28;14.98;;;;;;;7.56;67.77;103124.59;4979542;28;20037;-83
2022/03/26 00:04:54;;;;;;;38.22;14.57;;;;;;;7.47;68.45;103125.22;4975720;28;20026;-83
2022/03/26 00:07:20;;;;;;;42.17;15.90;;;;;;;7.42;69.05;103126.81;5009129;28;20033;-83
2022/03/26 00:09:46;;;;;;;34.85;14.60;;;;;;;7.35;68.42;103123.19;4989379;28;20026;-83
2022/03/26 00:12:11;;;;;;;39.38;15.48;;;;;;;7.27;68.95;103118.66;4974353;28;20253;-83
2022/03/26 00:14:36;;;;;;;38.97;15.85;;;;;;;7.23;68.21;103128.03;4990137;28;20023;-83
2022/03/26 00:17:02;;;;;;;32.63;14.53;;;;;;;7.15;69.35;103132.13;4996815;28;20041;-83
2022/03/26 00:19:27;;;;;;;36.22;15.52;;;;;;;7.03;68.20;103124.91;4981427;28;20297;-82
2022/03/26 00:21:53;;;;;;;35.80;14.85;;;;;;;6.95;68.46;103120.38;4990986;28;20092;-83
2022/03/26 00:24:18;;;;;;;35.50;14.18;;;;;;;6.87;68.63;103127.91;4987477;28;20041;-82
2022/03/26 00:26:43;;;;;;;35.33;14.63;;;;;;;6.81;70.45;103121.69;4982914;28;20446;-82
2022/03/26 00:29:09;;;;;;;38.60;14.23;;;;;;;6.72;69.67;103117.16;4982143;28;20030;-83
2022/03/26 00:31:37;;;;;;;34.38;14.27;;;;;;;6.61;68.86;103122.00;4984031;28;20446;-82
2022/03/26 00:34:02;;;;;;;36.20;14.68;;;;;;;6.54;70.46;103122.66;4982003;28;20383;-83
2022/03/26 00:36:28;;;;;;;38.55;15.43;;;;;;;6.50;71.14;103130.22;4984870;28;20471;-82
2022/03/26 00:38:53;;;;;;;39.70;14.85;;;;;;;6.50;71.97;103127.66;4991622;28;20098;-82
2022/03/26 00:41:18;;;;;;;37.70;14.38;;;;;;;6.51;72.54;103124.25;4985190;28;20385;-82
2022/03/26 00:43:44;;;;;;;36.22;15.05;;;;;;;6.51;71.48;103126.81;4988796;28;20428;-83
2022/03/26 00:46:10;;;;;;;39.85;15.23;;;;;;;6.52;72.38;103119.16;4983058;28;20481;-83
2022/03/26 00:48:36;;;;;;;36.15;14.57;;;;;;;6.55;72.71;103120.97;4986727;28;20034;-83
2022/03/26 00:51:01;;;;;;;36.60;14.83;;;;;;;6.53;72.19;103114.88;4987151;28;20026;-83
2022/03/26 00:53:26;;;;;;;40.65;15.23;;;;;;;6.50;72.90;103109.63;4991109;28;20295;-83
2022/03/26 00:55:52;;;;;;;37.63;14.82;;;;;;;6.50;73.34;103117.34;4987134;28;20122;-83
2022/03/26 00:58:17;;;;;;;34.55;15.13;;;;;;;6.45;73.33;103117.22;4984947;28;20026;-83
2022/03/26 01:00:42;;;;;;;36.50;14.27;;;;;;;6.41;73.15;103117.97;4981132;28;20038;-82
2022/03/26 01:03:09;;;;;;;34.13;14.95;;;;;;;6.34;71.42;103111.75;4988130;28;20733;-83
2022/03/26 01:05:35;;;;;;;42.40;14.88;;;;;;;6.27;72.65;103111.53;4990333;28;20034;-83
2022/03/26 01:08:00;;;;;;;33.50;13.95;;;;;;;6.17;71.02;103101.75;4988136;28;20042;-83
2022/03/26 01:10:27;;;;;;;33.08;14.27;;;;;;;6.11;72.41;103111.88;4988645;28;20042;-83
2022/03/26 01:12:53;;;;;;;34.83;14.57;;;;;;;6.01;70.93;103107.25;4984150;28;20088;-83
2022/03/26 01:15:19;;;;;;;34.40;13.70;;;;;;;5.94;72.19;103113.91;4986183;28;20050;-83
2022/03/26 01:17:44;;;;;;;33.65;14.32;;;;;;;5.85;71.70;103103.31;5005504;28;20054;-83
2022/03/26 01:20:11;;;;;;;34.97;14.68;;;;;;;5.79;72.41;103108.25;4991257;28;20081;-83
2022/03/26 01:22:36;;;;;;;35.17;14.35;;;;;;;5.70;73.33;103113.09;4988308;28;20027;-83
2022/03/26 01:25:05;;;;;;;36.38;14.43;;;;;;;5.67;75.04;103115.56;4981130;28;20034;-83
2022/03/26 01:27:31;;;;;;;33.15;14.38;;;;;;;5.61;74.21;103113.66;4983113;28;20031;-83
2022/03/26 01:29:56;;;;;;;39.13;14.63;;;;;;;5.61;75.51;103116.22;4989685;28;20073;-83
2022/03/26 01:32:21;;;;;;;36.75;15.65;;;;;;;5.66;76.45;103113.84;4981783;28;20022;-83
2022/03/26 01:34:47;;;;;;;36.60;14.75;;;;;;;5.67;76.14;103120.69;4991154;28;20023;-83
2022/03/26 01:37:12;;;;;;;37.85;15.23;;;;;;;5.66;75.50;103119.84;4978560;28;20046;-83
2022/03/26 01:39:38;;;;;;;36.13;14.75;;;;;;;5.61;75.60;103115.34;4983527;28;20105;-83
2022/03/26 01:42:04;;;;;;;37.72;15.32;;;;;;;5.63;76.17;103113.72;4988545;28;20045;-83
2022/03/26 01:44:30;;;;;;;35.05;14.70;;;;;;;5.66;76.95;103121.56;4969347;28;20452;-82
2022/03/26 01:46:56;;;;;;;39.13;15.13;;;;;;;5.70;77.32;103115.66;4971569;28;20500;-83
2022/03/26 01:49:22;;;;;;;38.53;14.48;;;;;;;5.73;77.17;103121.78;4989627;28;20361;-83
2022/03/26 01:51:48;;;;;;;43.47;14.85;;;;;;;5.77;76.77;103117.63;4983505;28;20481;-83
2022/03/26 01:54:16;;;;;;;35.03;14.07;;;;;;;5.79;76.84;103113.41;4975233;28;20414;-83
2022/03/26 01:56:42;;;;;;;37.70;14.05;;;;;;;5.77;75.39;103118.50;4976333;28;20018;-83
2022/03/26 01:59:08;;;;;;;36.20;15.07;;;;;;;5.77;75.27;103115.91;4989186;28;20085;-83
2022/03/26 02:01:34;;;;;;;32.38;13.68;;;;;;;5.71;75.61;103108.00;4988602;28;20100;-83
2022/03/26 02:04:00;;;;;;;37.92;14.60;;;;;;;5.66;75.03;103107.00;4972426;28;20042;-83
2022/03/26 02:06:33;;;;;;;33.78;14.20;;;;;;;5.61;74.41;103113.66;4973186;28;20500;-83
2022/03/26 02:09:03;;;;;;;39.13;14.35;;;;;;;5.56;76.42;103117.78;4989297;28;20034;-85
2022/03/26 02:11:32;;;;;;;34.95;14.15;;;;;;;5.51;76.26;103109.94;4978680;28;20532;-85
2022/03/26 02:13:58;;;;;;;37.30;14.73;;;;;;;5.49;77.18;103113.25;4975210;28;20315;-85
2022/03/26 02:16:25;;;;;;;38.33;14.52;;;;;;;5.45;75.60;103117.44;4987166;28;20126;-85
2022/03/26 02:18:52;;;;;;;34.58;14.48;;;;;;;5.37;75.12;103113.72;4992762;28;20041;-86
2022/03/26 02:21:19;;;;;;;34.25;14.23;;;;;;;5.32;75.88;103111.81;4982699;28;20033;-85
2022/03/26 02:23:45;;;;;;;36.95;14.25;;;;;;;5.25;74.32;103123.59;4984154;28;20034;-85
2022/03/26 02:26:20;;;;;;;36.88;14.13;;;;;;;5.19;75.18;103119.94;4988418;28;20057;-85
2022/03/26 02:28:45;;;;;;;33.90;13.85;;;;;;;5.11;76.12;103120.53;4985114;28;20037;-85
2022/03/26 02:31:12;;;;;;;35.08;14.65;;;;;;;5.04;76.62;103115.13;4986521;28;20038;-85
2022/03/26 02:33:37;;;;;;;37.35;14.40;;;;;;;4.99;76.54;103114.94;4983055;28;20038;-85
2022/03/26 02:36:03;;;;;;;31.70;13.55;;;;;;;4.91;76.78;103115.50;4985882;28;20023;-85
2022/03/26 02:38:29;;;;;;;37.92;14.15;;;;;;;4.86;77.50;103112.75;4984617;28;20029;-83
2022/03/26 02:40:54;;;;;;;31.55;13.23;;;;;;;4.81;76.71;103108.28;4978419;28;20032;-83
2022/03/26 02:43:20;;;;;;;36.22;13.63;;;;;;;4.73;77.04;103108.88;5009808;28;20030;-83
2022/03/26 02:45:46;;;;;;;34.38;13.50;;;;;;;4.68;77.33;103125.81;4978056;28;20050;-83
2022/03/26 02:48:13;;;;;;;34.72;14.10;;;;;;;4.64;77.98;103126.50;4975068;28;20101;-83
2022/03/26 02:50:45;;;;;;;31.95;13.93;;;;;;;4.58;78.42;103117.69;4988976;28;20049;-83
2022/03/26 02:53:11;;;;;;;34.28;14.10;;;;;;;4.56;78.65;103124.50;4986253;28;20536;-83
2022/03/26 02:55:37;;;;;;;35.95;13.68;;;;;;;4.49;76.97;103114.81;4974011;28;20019;-82
2022/03/26 02:58:03;;;;;;;36.53;13.93;;;;;;;4.46;77.43;103117.25;4987288;28;20464;-83
2022/03/26 03:00:29;;;;;;;37.00;14.35;;;;;;;4.45;78.25;103118.94;4987133;28;20038;-82
2022/03/26 03:02:54;;;;;;;38.90;14.50;;;;;;;4.41;79.00;103111.94;4981300;28;20113;-83
2022/03/26 03:05:19;;;;;;;34.83;14.07;;;;;;;4.38;78.68;103111.81;4980880;28;20286;-83
2022/03/26 03:07:45;;;;;;;37.83;13.48;;;;;;;4.33;77.70;103115.91;4985704;28;20034;-82
2022/03/26 03:10:15;;;;;;;34.25;13.55;;;;;;;4.28;78.49;103109.72;4983795;28;20023;-82
2022/03/26 03:12:41;;;;;;;39.40;15.15;;;;;;;4.25;79.61;103112.16;4971026;28;20126;-82
2022/03/26 03:15:06;;;;;;;34.80;13.93;;;;;;;4.18;77.55;103120.44;4971578;28;20109;-83
2022/03/26 03:17:40;;;;;;;35.28;14.30;;;;;;;4.16;79.04;103116.97;5003043;28;20027;-82
2022/03/26 03:20:07;;;;;;;41.00;14.57;;;;;;;4.09;78.88;103105.59;4985264;28;20030;-83
2022/03/26 03:22:32;;;;;;;38.00;13.88;;;;;;;4.07;79.02;103112.34;4981748;28;20077;-83
2022/03/26 03:24:58;;;;;;;37.83;14.90;;;;;;;4.05;80.24;103119.09;4976386;28;20026;-83
2022/03/26 03:27:24;;;;;;;39.70;14.50;;;;;;;4.04;80.78;103117.34;4976678;28;20030;-83
2022/03/26 03:29:49;;;;;;;39.85;14.50;;;;;;;4.04;80.51;103122.47;4983547;28;20026;-83
2022/03/26 03:32:15;;;;;;;40.28;13.88;;;;;;;4.04;80.63;103122.47;4975676;28;20019;-83
2022/03/26 03:34:41;;;;;;;39.20;13.82;;;;;;;4.02;80.73;103126.69;4987553;28;20033;-83
2022/03/26 03:37:06;;;;;;;37.40;14.13;;;;;;;3.97;80.70;103126.47;4988159;28;20037;-83
2022/03/26 03:39:32;;;;;;;35.55;14.18;;;;;;;4.00;80.95;103128.31;4980248;28;20113;-83
2022/03/26 03:41:57;;;;;;;37.30;14.38;;;;;;;4.07;82.76;103127.75;4983304;28;20026;-83
2022/03/26 03:44:22;;;;;;;40.30;14.98;;;;;;;4.14;83.22;103126.28;4990656;28;20134;-83
2022/03/26 03:46:48;;;;;;;38.38;14.68;;;;;;;4.17;83.26;103122.13;4987042;28;20349;-82
2022/03/26 03:49:13;;;;;;;35.28;14.18;;;;;;;4.24;82.68;103124.13;4992299;28;20403;-83
2022/03/26 03:51:38;;;;;;;38.55;15.25;;;;;;;4.27;82.91;103123.38;4982769;28;20392;-83
2022/03/26 03:54:05;;;;;;;43.15;15.35;;;;;;;4.34;82.64;103127.94;4987941;28;20103;-83
2022/03/26 03:56:30;;;;;;;37.53;14.57;;;;;;;4.44;82.94;103130.03;4987525;28;20029;-83
2022/03/26 03:58:56;;;;;;;39.17;15.02;;;;;;;4.50;82.37;103121.69;4987327;28;20023;-82
2022/03/26 04:01:21;;;;;;;43.70;15.55;;;;;;;4.58;82.43;103134.00;4984706;28;20047;-83
2022/03/26 04:03:47;;;;;;;33.35;13.85;;;;;;;4.59;82.01;103122.03;4966293;28;20448;-83
2022/03/26 04:06:13;;;;;;;37.97;14.15;;;;;;;4.51;80.04;103121.72;4983128;28;20109;-83
2022/03/26 04:08:38;;;;;;;36.42;14.60;;;;;;;4.47;81.58;103125.00;4988380;28;20040;-83
2022/03/26 04:11:03;;;;;;;36.50;14.68;;;;;;;4.40;81.41;103127.28;4988915;28;20116;-83
2022/03/26 04:13:29;;;;;;;35.92;13.65;;;;;;;4.33;80.82;103126.19;4985305;28;20054;-83
2022/03/26 04:15:54;;;;;;;39.55;14.00;;;;;;;4.25;80.41;103127.56;4982822;28;20439;-82
2022/03/26 04:18:20;;;;;;;35.75;14.10;;;;;;;4.17;81.21;103127.28;4981490;28;20038;-83
2022/03/26 04:20:46;;;;;;;36.67;14.30;;;;;;;4.12;81.34;103131.34;4990627;28;20120;-83
2022/03/26 04:23:11;;;;;;;40.45;14.75;;;;;;;4.03;81.00;103124.97;4984362;28;20037;-83
2022/03/26 04:25:38;;;;;;;34.95;14.30;;;;;;;3.96;80.66;103137.56;4991423;28;20030;-83
2022/03/26 04:28:03;;;;;;;36.45;14.57;;;;;;;3.90;79.94;103136.44;4988763;28;20062;-83
2022/03/26 04:30:29;;;;;;;33.45;13.55;;;;;;;3.84;80.60;103137.06;5013933;28;20157;-83
2022/03/26 04:32:54;;;;;;;35.00;14.38;;;;;;;3.80;81.02;103136.88;4984086;28;20034;-83
2022/03/26 04:35:19;;;;;;;35.33;13.98;;;;;;;3.77;81.71;103136.75;4989030;28;20081;-83
2022/03/26 04:37:45;;;;;;;36.47;13.20;;;;;;;3.71;81.87;103132.25;4978276;28;20114;-83
2022/03/26 04:40:11;;;;;;;36.80;13.60;;;;;;;3.65;81.27;103129.44;5021319;28;20134;-84
2022/03/26 04:42:41;;;;;;;35.28;13.68;;;;;;;3.60;81.58;103130.06;4994313;28;20483;-82
2022/03/26 04:45:07;;;;;;;39.65;14.60;;;;;;;3.55;81.35;103133.31;4990587;28;20026;-83
2022/03/26 04:47:33;;;;;;;36.45;13.60;;;;;;;3.49;81.09;103122.78;4987009;28;20034;-83
2022/03/26 04:49:58;;;;;;;37.92;14.35;;;;;;;3.47;82.03;103127.00;4983490;28;20037;-83
2022/03/26 04:52:24;;;;;;;35.15;13.73;;;;;;;3.43;81.50;103137.03;4986375;28;20162;-83
2022/03/26 04:54:49;;;;;;;36.85;14.13;;;;;;;3.40;81.97;103137.81;4987905;28;20034;-83
2022/03/26 04:57:17;;;;;;;36.83;14.13;;;;;;;3.37;82.99;103136.78;4978749;28;20056;-83
2022/03/26 04:59:42;;;;;;;38.63;14.48;;;;;;;3.35;83.01;103140.97;4985796;28;20280;-83
2022/03/26 05:02:07;;;;;;;38.13;14.55;;;;;;;3.32;82.68;103136.59;4989670;28;20034;-83
2022/03/26 05:04:32;;;;;;;41.17;15.15;;;;;;;3.32;81.90;103138.28;4982625;28;20057;-82
2022/03/26 05:06:59;;;;;;;38.80;14.68;;;;;;;3.29;82.79;103135.56;4986943;28;20034;-83
2022/03/26 05:09:24;;;;;;;37.83;15.15;;;;;;;3.32;83.59;103138.28;4989653;28;20495;-83
2022/03/26 05:11:50;;;;;;;38.70;15.80;;;;;;;3.32;83.72;103144.28;4979545;28;20033;-82
2022/03/26 05:14:16;;;;;;;38.70;14.75;;;;;;;3.34;84.63;103137.56;4985862;28;20050;-83
2022/03/26 05:16:42;;;;;;;36.20;15.73;;;;;;;3.39;84.92;103138.63;4986163;28;20046;-83
2022/03/26 05:19:07;;;;;;;44.50;16.25;;;;;;;3.49;85.47;103142.41;4986133;28;20054;-83
2022/03/26 05:21:32;;;;;;;41.50;15.68;;;;;;;3.62;86.30;103137.00;4984304;28;20458;-83
2022/03/26 05:23:58;;;;;;;39.75;14.57;;;;;;;3.70;85.18;103137.31;4979936;28;20043;-82
2022/03/26 05:26:23;;;;;;;39.92;15.20;;;;;;;3.79;85.58;103141.16;4982173;28;20030;-83
2022/03/26 05:28:50;;;;;;;42.28;15.25;;;;;;;3.84;83.91;103144.75;4984142;28;20113;-83
2022/03/26 05:31:16;;;;;;;41.15;15.27;;;;;;;3.89;84.24;103148.38;4985543;28;20547;-82
2022/03/26 05:33:41;;;;;;;42.30;15.77;;;;;;;3.93;84.11;103150.28;4972164;28;20134;-82
2022/03/26 05:36:07;;;;;;;39.30;15.52;;;;;;;4.04;84.97;103160.09;4976328;28;20018;-82
2022/03/26 05:38:32;;;;;;;41.33;15.90;;;;;;;4.10;84.31;103148.38;4976519;28;20454;-82
2022/03/26 05:40:58;;;;;;;41.80;15.32;;;;;;;4.18;83.78;103156.38;4984336;28;20037;-82
2022/03/26 05:43:24;;;;;;;39.97;16.50;;;;;;;4.25;82.63;103161.81;4974996;28;20029;-82
2022/03/26 05:45:51;;;;;;;39.40;15.57;;;;;;;4.32;82.97;103158.69;4988875;28;20096;-82
2022/03/26 05:48:19;;;;;;;38.15;15.38;;;;;;;4.44;82.14;103159.97;4987199;28;20034;-82
2022/03/26 05:50:44;;;;;;;38.35;15.52;;;;;;;4.53;81.93;103161.19;4988937;28;20034;-82
2022/03/26 05:53:10;;;;;;;39.97;15.48;;;;;;;4.60;82.03;103167.44;4976329;28;20087;-82
2022/03/26 05:55:35;;;;;;;44.25;15.88;;;;;;;4.64;81.34;103162.47;5004755;28;20193;-82
2022/03/26 05:58:01;;;;;;;44.58;15.82;;;;;;;4.71;80.63;103159.31;4979746;28;20062;-82
2022/03/26 06:00:26;;;;;;;40.22;16.10;;;;;;;4.78;81.39;103171.56;5010871;28;20333;-82
2022/03/26 06:02:51;;;;;;;40.80;16.30;;;;;;;4.84;82.21;103170.06;4979562;28;20047;-82
2022/03/26 06:05:17;;;;;;;40.70;15.53;;;;;;;5.00;82.21;103169.78;4985990;28;20059;-82
2022/03/26 06:07:42;;;;;;;45.03;15.47;;;;;;;5.39;80.60;103167.78;4983461;28;20277;-82
2022/03/26 06:10:08;;;;;;;45.47;16.30;;;;;;;5.88;80.34;103165.19;4982173;28;20309;-82
2022/03/26 06:12:34;;;;;;;39.15;15.20;;;;;;;6.40;78.72;103165.16;4978546;28;20639;-82
2022/03/26 06:14:59;;;;;;;38.88;15.27;;;;;;;6.94;77.86;103163.34;4985388;28;20026;-82
2022/03/26 06:17:25;;;;;;;37.38;15.57;;;;;;;7.48;74.73;103176.88;4973851;28;20030;-83
2022/03/26 06:19:50;;;;;;;38.35;15.32;;;;;;;7.87;72.91;103174.44;4981171;28;20084;-82
2022/03/26 06:22:15;;;;;;;40.97;15.73;;;;;;;8.10;72.29;103168.97;4977520;28;20020;-82
2022/03/26 06:24:41;;;;;;;39.97;15.77;;;;;;;8.21;71.17;103173.53;4990362;28;20026;-82
2022/03/26 06:27:06;;;;;;;41.08;16.10;;;;;;;8.22;67.82;103183.03;4987836;28;20360;-82
2022/03/26 06:29:33;;;;;;;46.90;16.35;;;;;;;8.24;68.55;103183.06;4989642;28;20034;-83
2022/03/26 06:32:00;;;;;;;39.67;17.05;;;;;;;8.44;67.79;103180.97;4981977;28;20433;-83
2022/03/26 06:34:26;;;;;;;44.13;17.38;;;;;;;8.45;66.14;103183.59;4986824;28;20034;-83
2022/03/26 06:36:51;;;;;;;44.63;18.33;;;;;;;8.54;66.32;103194.13;4989410;28;20022;-83
2022/03/26 06:39:16;;;;;;;41.03;16.70;;;;;;;8.42;65.90;103180.06;4973414;28;20303;-84
2022/03/26 06:41:43;;;;;;;44.58;17.25;;;;;;;8.51;67.12;103188.91;4982123;28;20036;-83
2022/03/26 06:44:09;;;;;;;43.00;17.83;;;;;;;8.78;66.44;103191.22;4966597;28;20451;-83
2022/03/26 06:46:38;;;;;;;45.50;17.63;;;;;;;8.96;65.55;103188.13;4970544;28;20508;-83
2022/03/26 06:49:08;;;;;;;46.70;18.00;;;;;;;9.01;65.24;103189.97;4972900;28;20054;-83
2022/03/26 06:51:35;;;;;;;50.75;18.05;;;;;;;9.36;65.53;103182.91;4979130;28;20539;-83
2022/03/26 06:54:00;;;;;;;43.88;17.35;;;;;;;9.88;64.14;103181.25;4971343;28;20123;-83
2022/03/26 06:56:26;;;;;;;40.75;16.98;;;;;;;10.05;63.45;103184.09;4981338;28;20111;-83
2022/03/26 06:58:51;;;;;;;46.42;18.13;;;;;;;10.57;60.18;103183.22;4972007;28;20067;-83
2022/03/26 07:01:17;;;;;;;41.63;17.52;;;;;;;11.09;61.13;103182.16;4983748;28;20034;-83
2022/03/26 07:03:42;;;;;;;40.83;17.38;;;;;;;11.25;57.86;103183.19;4979224;28;20050;-83
2022/03/26 07:06:08;;;;;;;42.65;18.00;;;;;;;11.12;58.59;103191.69;4986837;28;20446;-83
2022/03/26 07:08:33;;;;;;;47.67;18.58;;;;;;;11.41;57.59;103190.28;4980146;28;20539;-83
2022/03/26 07:10:59;;;;;;;41.42;18.33;;;;;;;12.22;57.20;103194.50;4973272;28;20077;-83
2022/03/26 07:13:24;;;;;;;41.30;17.90;;;;;;;12.66;53.47;103185.25;4978362;28;20031;-83
2022/03/26 07:15:50;;;;;;;38.58;17.58;;;;;;;12.33;53.76;103199.78;4975427;28;20365;-83
2022/03/26 07:18:16;;;;;;;44.67;18.05;;;;;;;11.98;55.40;103196.91;4973786;28;20548;-83
2022/03/26 07:20:41;;;;;;;48.65;18.80;;;;;;;11.66;55.44;103194.00;4990133;28;20472;-83
2022/03/26 07:23:07;;;;;;;42.65;18.98;;;;;;;11.41;58.90;103201.53;4984584;28;20030;-83
2022/03/26 07:25:33;;;;;;;42.37;18.50;;;;;;;11.17;57.21;103197.81;4991799;28;20405;-83
2022/03/26 07:27:58;;;;;;;42.85;18.58;;;;;;;11.06;57.98;103195.06;4971979;28;20301;-83
2022/03/26 07:30:24;;;;;;;39.53;18.52;;;;;;;11.42;57.51;103203.28;4981420;28;20395;-83
2022/03/26 07:32:49;;;;;;;46.22;18.20;;;;;;;11.57;57.34;103202.56;4970470;28;20286;-83
2022/03/26 07:35:15;;;;;;;41.53;17.00;;;;;;;11.66;56.40;103204.41;4999685;28;20117;-83
2022/03/26 07:37:43;;;;;;;41.40;17.77;;;;;;;11.91;55.40;103201.19;4975353;28;20165;-83
2022/03/26 07:40:09;;;;;;;43.50;17.50;;;;;;;12.07;54.13;103204.81;4973944;28;20061;-83
2022/03/26 07:42:37;;;;;;;43.72;17.27;;;;;;;11.91;54.18;103202.91;4975209;28;20538;-83
2022/03/26 07:45:04;;;;;;;40.42;17.95;;;;;;;11.44;54.86;103205.91;4966087;28;20540;-84
2022/03/26 07:47:29;;;;;;;42.92;18.23;;;;;;;11.14;56.08;103210.75;4973362;28;20393;-83
2022/03/26 07:49:55;;;;;;;44.22;18.08;;;;;;;11.11;56.36;103213.31;4972065;28;20045;-83
2022/03/26 07:52:20;;;;;;;41.55;17.67;;;;;;;11.09;57.17;103210.69;4984437;28;20034;-83
2022/03/26 07:54:46;;;;;;;45.65;18.85;;;;;;;11.17;56.61;103206.47;4986538;28;20030;-83
2022/03/26 07:57:11;;;;;;;43.55;18.35;;;;;;;11.36;55.83;103217.94;4978246;28;20053;-83
2022/03/26 07:59:36;;;;;;;44.83;18.77;;;;;;;11.60;55.77;103205.19;4974003;28;20066;-84
2022/03/26 08:02:02;;;;;;;42.20;18.17;;;;;;;11.90;55.01;103202.03;4987977;28;20032;-84
2022/03/26 08:04:27;;;;;;;44.33;19.30;;;;;;;12.13;54.81;103210.91;4977334;28;20022;-84
2022/03/26 08:06:52;;;;;;;48.00;19.25;;;;;;;12.65;56.96;103214.72;4988635;28;20027;-84
2022/03/26 08:09:18;;;;;;;47.27;18.67;;;;;;;13.47;52.85;103213.34;4971400;28;20101;-84
2022/03/26 08:11:45;;;;;;;43.75;19.02;;;;;;;14.27;54.18;103207.31;4979023;28;20698;-84
2022/03/26 08:14:10;;;;;;;42.95;18.42;;;;;;;14.94;49.15;103210.69;4982693;28;20109;-84
2022/03/26 08:16:36;;;;;;;43.97;18.60;;;;;;;15.20;46.99;103216.66;4992662;28;20105;-84
2022/03/26 08:19:01;;;;;;;42.80;17.53;;;;;;;15.43;46.21;103217.38;4984278;28;20064;-84
2022/03/26 08:21:26;;;;;;;37.88;17.10;;;;;;;15.64;44.38;103223.38;4977613;28;20297;-84
2022/03/26 08:23:53;;;;;;;35.92;16.25;;;;;;;16.21;43.95;103222.06;4985211;28;20030;-84
2022/03/26 08:26:29;;;;;;;36.00;15.95;;;;;;;16.82;42.79;103226.69;4990663;28;20026;-84
2022/03/26 08:28:56;;;;;;;37.63;16.98;;;;;;;17.41;40.87;103228.56;4980938;28;20030;-83
2022/03/26 08:31:23;;;;;;;35.35;16.98;;;;;;;17.79;43.35;103227.16;4977076;28;20062;-84
2022/03/26 08:33:48;;;;;;;36.95;17.60;;;;;;;17.75;40.40;103234.19;4981227;28;20035;-84
2022/03/26 08:36:16;;;;;;;37.88;17.75;;;;;;;17.50;40.46;103236.31;4983554;28;20023;-84
2022/03/26 08:38:45;;;;;;;38.83;17.42;;;;;;;17.24;40.75;103227.94;4987601;28;20051;-83
2022/03/26 08:41:16;;;;;;;37.72;18.73;;;;;;;17.09;41.46;103238.59;4983181;28;21494;-84
2022/03/26 08:43:42;;;;;;;36.55;18.50;;;;;;;17.21;44.53;103234.06;4976946;28;20089;-83
2022/03/26 08:46:07;;;;;;;37.42;18.30;;;;;;;17.25;41.35;103238.41;4973145;28;20436;-83
2022/03/26 08:48:33;;;;;;;37.55;18.15;;;;;;;17.09;40.59;103244.72;4978653;28;20053;-83
2022/03/26 08:50:59;;;;;;;41.97;18.55;;;;;;;17.22;42.83;103248.91;4979599;28;20027;-83
2022/03/26 08:53:24;;;;;;;39.35;18.90;;;;;;;17.22;41.37;103243.66;4977219;28;20046;-83
2022/03/26 08:55:51;;;;;;;40.55;19.55;;;;;;;17.18;40.74;103238.50;4985848;28;20023;-83
2022/03/26 08:58:17;;;;;;;36.42;18.85;;;;;;;17.19;43.44;103240.25;4989764;28;20077;-83
2022/03/26 09:00:43;;;;;;;35.05;19.27;;;;;;;17.27;42.07;103235.75;4985719;28;20485;-83
2022/03/26 09:03:08;;;;;;;40.20;19.30;;;;;;;17.12;40.62;103238.59;4990223;28;20026;-84
2022/03/26 09:05:33;;;;;;;38.60;18.85;;;;;;;16.90;41.16;103251.06;4982731;28;20023;-83
2022/03/26 09:07:59;;;;;;;36.97;18.63;;;;;;;16.63;42.65;103243.50;4979396;28;20031;-83
2022/03/26 09:10:24;;;;;;;37.83;18.67;;;;;;;16.58;41.84;103243.53;4970967;28;20278;-83
2022/03/26 09:12:49;;;;;;;36.57;18.23;;;;;;;16.38;41.93;103241.09;4976633;28;20279;-83
2022/03/26 09:15:15;;;;;;;35.23;18.10;;;;;;;16.41;41.93;103248.06;4984473;28;20324;-83
2022/03/26 09:17:40;;;;;;;37.20;18.00;;;;;;;16.37;43.02;103255.09;4980677;28;20274;-83
2022/03/26 09:20:07;;;;;;;36.30;19.20;;;;;;;16.34;44.11;103242.00;4986238;28;20400;-83
2022/03/26 09:22:33;;;;;;;38.05;18.08;;;;;;;16.32;43.69;103245.50;4975837;28;20481;-83
2022/03/26 09:24:59;;;;;;;41.85;18.98;;;;;;;16.24;43.59;103242.97;4967587;28;20411;-84
2022/03/26 09:27:24;;;;;;;36.45;18.35;;;;;;;16.32;45.02;103241.16;4978059;28;20027;-83
2022/03/26 09:29:50;;;;;;;41.38;19.48;;;;;;;16.24;43.81;103245.56;4979110;28;20084;-83
2022/03/26 09:32:15;;;;;;;39.67;19.60;;;;;;;16.10;44.39;103244.84;4974881;28;20397;-83
2022/03/26 09:34:41;;;;;;;38.88;19.25;;;;;;;15.99;45.01;103244.94;4979671;28;20038;-83
2022/03/26 09:37:07;;;;;;;38.17;19.23;;;;;;;15.92;44.49;103248.47;4991100;28;20018;-83
2022/03/26 09:39:32;;;;;;;39.60;20.17;;;;;;;15.85;44.50;103245.91;4979358;28;20293;-83
2022/03/26 09:41:58;;;;;;;39.70;19.55;;;;;;;15.73;45.25;103245.13;4985800;28;20448;-84
2022/03/26 09:44:24;;;;;;;38.83;19.33;;;;;;;15.68;46.70;103243.41;4978748;28;20037;-83
2022/03/26 09:46:50;;;;;;;34.22;17.50;;;;;;;15.72;45.41;103245.13;4990777;28;20038;-84
2022/03/26 09:49:15;;;;;;;36.75;18.63;;;;;;;15.82;45.47;103243.34;4981984;28;20100;-84
2022/03/26 09:51:42;;;;;;;34.15;17.55;;;;;;;15.76;44.17;103249.47;4989043;28;20022;-83
2022/03/26 09:54:08;;;;;;;34.75;17.33;;;;;;;15.72;44.97;103242.50;4982649;28;20092;-83
2022/03/26 09:56:34;;;;;;;35.75;16.75;;;;;;;15.76;44.44;103247.69;4980805;28;20423;-84
2022/03/26 09:59:00;;;;;;;31.95;16.55;;;;;;;15.66;44.87;103239.94;4983396;28;20058;-83
2022/03/26 10:01:26;;;;;;;29.77;14.77;;;;;;;15.67;43.98;103239.06;4976480;28;20039;-83
2022/03/26 10:04:11;;;;;;;32.63;15.75;;;;;;;15.74;44.84;103238.16;4981236;28;20418;-83
2022/03/26 10:06:37;;;;;;;29.85;15.45;;;;;;;15.78;44.18;103237.22;4971902;28;20092;-83
2022/03/26 10:09:03;;;;;;;30.02;14.25;;;;;;;15.87;43.88;103233.69;4980412;28;20046;-84
2022/03/26 10:11:32;;;;;;;30.50;14.82;;;;;;;15.83;42.59;103234.59;4978075;28;20034;-83
2022/03/26 10:13:58;;;;;;;31.38;15.00;;;;;;;15.77;42.86;103238.09;4983783;28;21413;-84
2022/03/26 10:16:24;;;;;;;26.50;13.80;;;;;;;15.78;43.03;103232.88;4988908;28;20106;-83
2022/03/26 10:18:50;;;;;;;29.98;13.95;;;;;;;15.79;43.14;103233.75;4979507;28;20030;-85
2022/03/26 10:21:18;;;;;;;27.75;13.18;;;;;;;15.86;43.17;103231.94;4989015;28;20034;-83
2022/03/26 10:23:45;;;;;;;30.20;14.85;;;;;;;16.00;43.03;103230.97;4980395;28;20173;-84
2022/03/26 10:26:16;;;;;;;32.20;15.45;;;;;;;16.00;41.80;103235.34;4984241;28;20188;-84
2022/03/26 10:28:43;;;;;;;29.38;13.77;;;;;;;16.04;42.01;103235.28;4979213;28;20035;-85
2022/03/26 10:34:11;;;;;;;29.58;14.60;;;;;;;15.98;42.86;103232.72;4976881;28;20402;-85
2022/03/26 10:36:43;;;;;;;34.28;14.70;;;;;;;15.99;43.88;103231.84;4986159;28;20301;-85
2022/03/26 10:39:20;;;;;;;31.33;14.10;;;;;;;16.11;43.52;103230.88;4978745;28;20088;-85
2022/03/26 10:41:47;;;;;;;30.67;15.10;;;;;;;16.21;44.64;103227.31;4981075;28;20026;-85
2022/03/26 10:44:15;;;;;;;33.20;15.48;;;;;;;16.22;44.08;103217.72;4986035;28;20034;-85
2022/03/26 10:46:42;;;;;;;35.72;16.10;;;;;;;16.20;44.62;103217.72;4984010;28;20070;-86
2022/03/26 10:49:07;;;;;;;30.63;15.80;;;;;;;16.17;45.05;103218.59;4989252;28;20056;-86
2022/03/26 10:51:38;;;;;;;33.85;15.63;;;;;;;16.20;45.49;103217.72;4986803;28;20470;-86
2022/03/26 10:54:12;;;;;;;33.10;15.85;;;;;;;16.28;45.60;103217.66;4978985;28;20034;-85
2022/03/26 10:56:38;;;;;;;37.60;16.98;;;;;;;16.31;44.30;103218.47;4983305;28;20025;-85
2022/03/26 10:59:03;;;;;;;36.13;15.57;;;;;;;16.34;45.34;103218.44;4976667;28;20030;-83
2022/03/26 11:01:29;;;;;;;33.13;15.88;;;;;;;16.32;44.78;103212.34;4988212;28;20101;-83
2022/03/26 11:03:54;;;;;;;32.03;15.68;;;;;;;16.30;45.72;103221.13;4980647;28;20030;-83
2022/03/26 11:06:25;;;;;;;32.25;15.35;;;;;;;16.30;46.00;103206.28;4978241;28;20030;-84
2022/03/26 11:08:51;;;;;;;34.08;15.73;;;;;;;16.37;45.75;103210.59;4986289;28;20037;-83
2022/03/26 11:11:18;;;;;;;34.67;15.68;;;;;;;16.39;45.73;103213.16;4987107;28;20035;-83